Time;durP1;ratioP1;P1;durP2;ratioP2;P2;SDS_P1;SDS_P2;PMS_P1;PMS_P2;Temp;Humidity;BMP_temperature;BMP_pressure;BME280_temperature;BME280_humidity;BME280_pressure;Samples;Min_cycle;Max_cycle;Signal;HPM_P1;HPM_P2
2021/10/05 00:00:37;;;;;;;8.33;7.67;;;10.30;99.90;;;;;;5071700;28;20166;-64
2021/10/05 00:03:05;;;;;;;8.97;8.17;;;10.30;99.90;;;;;;5072320;28;20279;-65
2021/10/05 00:05:31;;;;;;;9.47;8.57;;;10.30;99.90;;;;;;5071373;28;20269;-65
2021/10/05 00:07:56;;;;;;;7.90;7.40;;;10.30;99.90;;;;;;5072196;28;20261;-65
2021/10/05 00:10:22;;;;;;;9.37;8.47;;;10.30;99.90;;;;;;5071759;28;20638;-64
2021/10/05 00:12:48;;;;;;;8.83;8.23;;;10.30;99.90;;;;;;5072263;28;20202;-64
2021/10/05 00:15:14;;;;;;;8.80;8.07;;;10.30;99.90;;;;;;5072054;28;20635;-64
2021/10/05 00:17:40;;;;;;;10.37;8.97;;;10.30;99.90;;;;;;5072003;28;20551;-64
2021/10/05 00:20:07;;;;;;;8.93;8.30;;;10.30;99.90;;;;;;5071563;28;20176;-64
2021/10/05 00:22:33;;;;;;;9.50;8.80;;;10.30;99.90;;;;;;5071992;28;20193;-65
2021/10/05 00:24:59;;;;;;;8.97;8.33;;;10.30;99.90;;;;;;5071857;28;20178;-65
2021/10/05 00:27:24;;;;;;;9.93;9.13;;;10.20;99.90;;;;;;5071799;28;20256;-64
2021/10/05 00:29:50;;;;;;;9.17;8.50;;;10.30;99.90;;;;;;5071238;28;20680;-65
2021/10/05 00:32:15;;;;;;;9.03;8.40;;;10.20;99.90;;;;;;5071151;28;20205;-65
2021/10/05 00:34:41;;;;;;;9.13;8.43;;;10.20;99.90;;;;;;5071155;28;20174;-64
2021/10/05 00:37:06;;;;;;;9.60;8.90;;;10.20;99.90;;;;;;5071668;28;20178;-65
2021/10/05 00:39:32;;;;;;;9.70;8.97;;;10.10;99.90;;;;;;5071324;28;20174;-64
2021/10/05 00:41:58;;;;;;;9.37;8.73;;;10.10;99.90;;;;;;5071548;28;20773;-64
2021/10/05 00:44:35;;;;;;;9.93;9.23;;;10.10;99.90;;;;;;5071559;28;20188;-64
2021/10/05 00:47:07;;;;;;;9.80;9.03;;;10.10;99.90;;;;;;5071804;28;20279;-64
2021/10/05 00:49:33;;;;;;;9.30;8.60;;;10.00;99.90;;;;;;5071192;28;20181;-65
2021/10/05 00:52:01;;;;;;;9.10;8.50;;;10.00;99.90;;;;;;5069858;28;20724;-65
2021/10/05 00:54:30;;;;;;;9.40;8.70;;;10.00;99.90;;;;;;5071678;28;20190;-65
2021/10/05 00:56:55;;;;;;;9.47;8.87;;;9.90;99.90;;;;;;5071562;28;20255;-65
2021/10/05 00:59:21;;;;;;;9.90;9.30;;;9.90;99.90;;;;;;5071179;28;20687;-65
2021/10/05 01:01:47;;;;;;;8.90;8.40;;;9.90;99.90;;;;;;5070987;28;20194;-65
2021/10/05 01:04:12;;;;;;;13.43;11.47;;;9.90;99.90;;;;;;5071346;28;20228;-65
2021/10/05 01:07:05;;;;;;;10.33;9.33;;;9.90;99.90;;;;;;5069502;28;20190;-64
2021/10/05 01:09:33;;;;;;;10.33;9.50;;;9.90;99.90;;;;;;5071113;28;20205;-65
2021/10/05 01:11:59;;;;;;;10.40;9.40;;;9.90;99.90;;;;;;5070977;28;20209;-64
2021/10/05 01:14:25;;;;;;;10.07;9.27;;;9.90;99.90;;;;;;5071568;28;20197;-65
2021/10/05 01:16:54;;;;;;;9.83;9.13;;;9.90;99.90;;;;;;5071271;28;20178;-65
2021/10/05 01:19:19;;;;;;;10.27;9.47;;;9.90;99.90;;;;;;5071266;28;20196;-65
2021/10/05 01:21:45;;;;;;;9.43;8.80;;;9.90;99.90;;;;;;5071273;28;20210;-65
2021/10/05 01:24:15;;;;;;;10.37;9.37;;;9.80;99.90;;;;;;5071474;28;20174;-65
2021/10/05 01:26:41;;;;;;;12.73;9.83;;;9.80;99.90;;;;;;5071208;28;20177;-64
2021/10/05 01:29:11;;;;;;;10.40;9.70;;;9.80;99.90;;;;;;5071061;28;20174;-64
2021/10/05 01:31:41;;;;;;;10.33;9.57;;;9.80;99.90;;;;;;5070455;28;20872;-64
2021/10/05 01:34:07;;;;;;;10.57;9.77;;;9.80;99.90;;;;;;5071295;28;20632;-65
2021/10/05 01:36:36;;;;;;;11.30;10.27;;;9.80;99.90;;;;;;5071274;28;20201;-64
2021/10/05 01:39:19;;;;;;;10.40;9.60;;;9.80;99.90;;;;;;5071274;28;20175;-64
2021/10/05 01:41:45;;;;;;;10.83;10.00;;;9.80;99.90;;;;;;5071059;28;20239;-64
2021/10/05 01:44:11;;;;;;;10.50;9.70;;;9.80;99.90;;;;;;5071394;28;20195;-64
2021/10/05 01:46:36;;;;;;;10.23;9.40;;;9.80;99.90;;;;;;5070853;28;20182;-65
2021/10/05 01:49:02;;;;;;;11.67;10.20;;;9.80;99.90;;;;;;5071018;28;20173;-65
2021/10/05 01:51:28;;;;;;;12.63;10.70;;;9.70;99.90;;;;;;5070563;28;20335;-65
2021/10/05 01:53:54;;;;;;;11.57;10.77;;;9.70;99.90;;;;;;5070896;28;20555;-65
2021/10/05 01:56:19;;;;;;;11.23;10.43;;;9.80;99.90;;;;;;5070694;28;20194;-65
2021/10/05 01:58:45;;;;;;;11.13;10.20;;;9.70;99.90;;;;;;5071386;28;20167;-65
2021/10/05 02:01:10;;;;;;;11.40;10.50;;;9.70;99.90;;;;;;5068827;28;20264;-65
2021/10/05 02:03:36;;;;;;;10.97;10.10;;;9.70;99.90;;;;;;5072110;28;20220;-65
2021/10/05 02:06:01;;;;;;;11.53;10.47;;;9.70;99.90;;;;;;5073702;28;20265;-64
2021/10/05 02:08:27;;;;;;;12.07;11.07;;;9.80;99.90;;;;;;5074583;28;20174;-65
2021/10/05 02:10:53;;;;;;;11.77;10.67;;;9.70;99.90;;;;;;5074780;28;20190;-69
2021/10/05 02:13:19;;;;;;;10.90;9.93;;;9.80;99.90;;;;;;5075465;28;20182;-70
2021/10/05 02:15:44;;;;;;;11.13;10.23;;;9.80;99.90;;;;;;5075123;28;20228;-71
2021/10/05 02:18:10;;;;;;;10.93;10.20;;;9.80;99.90;;;;;;5075577;28;20542;-70
2021/10/05 02:20:35;;;;;;;11.73;10.73;;;9.80;99.90;;;;;;5073808;28;20239;-72
2021/10/05 02:23:02;;;;;;;11.13;10.30;;;9.80;99.90;;;;;;5075389;28;20206;-70
2021/10/05 02:25:28;;;;;;;11.87;10.20;;;9.80;99.90;;;;;;5075512;28;20225;-70
2021/10/05 02:27:53;;;;;;;10.67;9.77;;;9.80;99.90;;;;;;5075524;28;20186;-70
2021/10/05 02:30:19;;;;;;;10.37;9.47;;;9.90;99.90;;;;;;5074867;28;20269;-70
2021/10/05 02:32:45;;;;;;;10.20;9.50;;;9.90;99.90;;;;;;5074635;28;20198;-70
2021/10/05 02:35:11;;;;;;;9.90;9.20;;;9.90;99.90;;;;;;5075001;28;20182;-73
2021/10/05 02:37:37;;;;;;;10.17;9.47;;;9.90;99.90;;;;;;5075347;28;20227;-69
2021/10/05 02:40:07;;;;;;;10.37;9.17;;;9.90;99.90;;;;;;5074907;28;20179;-70
2021/10/05 02:42:33;;;;;;;9.57;8.87;;;9.90;99.90;;;;;;5073705;28;20213;-69
2021/10/05 02:45:00;;;;;;;9.90;9.00;;;9.90;99.90;;;;;;5073465;28;20181;-70
2021/10/05 02:47:25;;;;;;;9.43;8.83;;;9.90;99.90;;;;;;5074809;28;20224;-68
2021/10/05 02:49:51;;;;;;;9.43;8.77;;;10.00;99.90;;;;;;5074461;28;20708;-69
2021/10/05 02:52:20;;;;;;;9.20;8.60;;;9.90;99.90;;;;;;5074825;28;20299;-68
2021/10/05 02:54:47;;;;;;;9.80;9.20;;;9.90;99.90;;;;;;5074146;28;20720;-69
2021/10/05 02:57:14;;;;;;;9.93;9.03;;;9.90;99.90;;;;;;5073326;28;20212;-69
2021/10/05 02:59:40;;;;;;;10.10;9.40;;;9.90;99.90;;;;;;5073131;28;20198;-69
2021/10/05 03:02:06;;;;;;;9.73;9.00;;;9.90;99.90;;;;;;5073318;28;20224;-68
2021/10/05 03:04:31;;;;;;;9.07;8.37;;;9.90;99.90;;;;;;5073722;28;20190;-67
2021/10/05 03:06:57;;;;;;;10.13;9.53;;;9.90;99.90;;;;;;5072046;28;20235;-70
2021/10/05 03:09:23;;;;;;;10.53;9.77;;;9.90;99.90;;;;;;5072129;28;20174;-67
2021/10/05 03:11:49;;;;;;;10.57;9.57;;;9.90;99.90;;;;;;5073675;28;20228;-69
2021/10/05 03:14:14;;;;;;;9.80;9.10;;;9.90;99.90;;;;;;5073172;28;20600;-71
2021/10/05 03:16:40;;;;;;;9.73;9.03;;;9.90;99.90;;;;;;5072909;28;20206;-67
2021/10/05 03:19:06;;;;;;;10.17;9.47;;;9.90;99.90;;;;;;5072878;28;20258;-68
2021/10/05 03:21:31;;;;;;;9.07;8.43;;;10.00;99.90;;;;;;5072946;28;20187;-68
2021/10/05 03:23:57;;;;;;;9.13;8.43;;;10.00;99.90;;;;;;5073073;28;20196;-67
2021/10/05 03:26:23;;;;;;;9.73;9.13;;;10.00;99.90;;;;;;5072875;28;20234;-71
2021/10/05 03:28:48;;;;;;;9.07;8.53;;;10.00;99.90;;;;;;5073166;28;20185;-70
2021/10/05 03:31:15;;;;;;;9.67;8.87;;;10.00;99.90;;;;;;5072239;28;20251;-70
2021/10/05 03:33:42;;;;;;;9.10;8.40;;;10.00;99.90;;;;;;5073199;28;20264;-69
2021/10/05 03:36:09;;;;;;;9.40;8.70;;;10.00;99.90;;;;;;5072548;28;20174;-70
2021/10/05 03:38:35;;;;;;;9.47;8.67;;;10.00;99.90;;;;;;5073430;28;20543;-71
2021/10/05 03:41:01;;;;;;;8.67;8.17;;;10.00;99.90;;;;;;5072570;28;20179;-65
2021/10/05 03:43:26;;;;;;;9.33;8.60;;;10.00;99.90;;;;;;5072847;28;20190;-69
2021/10/05 03:45:52;;;;;;;9.73;8.97;;;10.00;99.90;;;;;;5072656;28;20177;-70
2021/10/05 03:48:19;;;;;;;11.87;10.90;;;10.00;99.90;;;;;;5072475;28;20178;-68
2021/10/05 03:50:45;;;;;;;10.60;9.67;;;10.00;99.90;;;;;;5072511;28;20628;-68
2021/10/05 03:53:15;;;;;;;10.87;9.60;;;10.00;99.90;;;;;;5072496;28;20214;-68
2021/10/05 03:55:44;;;;;;;10.30;9.60;;;10.00;99.90;;;;;;5034447;28;1105980;-64
2021/10/05 03:58:09;;;;;;;9.93;9.33;;;10.10;99.90;;;;;;5072645;28;20227;-63
2021/10/05 04:00:35;;;;;;;9.50;8.73;;;10.10;99.90;;;;;;5072439;28;20631;-64
2021/10/05 04:03:01;;;;;;;9.87;9.27;;;10.10;99.90;;;;;;5072655;28;20667;-63
2021/10/05 04:05:26;;;;;;;10.57;9.77;;;10.10;99.90;;;;;;5072335;28;20184;-63
2021/10/05 04:07:52;;;;;;;10.13;9.43;;;10.00;99.90;;;;;;5072628;28;20264;-63
2021/10/05 04:10:17;;;;;;;10.07;9.20;;;10.00;99.90;;;;;;5072171;28;20182;-63
2021/10/05 04:12:43;;;;;;;10.50;9.80;;;10.00;99.90;;;;;;5072519;28;20668;-63
2021/10/05 04:15:09;;;;;;;10.60;9.70;;;10.00;99.90;;;;;;5072313;28;20178;-63
2021/10/05 04:17:34;;;;;;;10.40;9.60;;;10.00;99.90;;;;;;5072412;28;20628;-63
2021/10/05 04:20:00;;;;;;;10.83;10.03;;;10.00;99.90;;;;;;5071548;28;20189;-63
2021/10/05 04:22:26;;;;;;;10.63;9.83;;;9.90;99.90;;;;;;5072374;28;20194;-63
2021/10/05 04:24:52;;;;;;;10.07;9.37;;;9.90;99.90;;;;;;5072405;28;20535;-63
2021/10/05 04:27:17;;;;;;;10.30;9.60;;;9.90;99.90;;;;;;5072399;28;20178;-63
2021/10/05 04:29:43;;;;;;;10.77;9.97;;;9.90;99.90;;;;;;5071711;28;20624;-63
2021/10/05 04:32:09;;;;;;;10.10;9.47;;;9.80;99.90;;;;;;5071623;28;20300;-64
2021/10/05 04:34:35;;;;;;;9.63;9.00;;;9.80;99.90;;;;;;5071930;28;20174;-63
2021/10/05 04:37:01;;;;;;;9.87;9.23;;;9.80;99.90;;;;;;5072658;28;20654;-64
2021/10/05 04:39:27;;;;;;;9.10;8.50;;;9.80;99.90;;;;;;5071763;28;20200;-64
2021/10/05 04:41:53;;;;;;;9.70;8.83;;;9.80;99.90;;;;;;5072324;28;20546;-64
2021/10/05 04:44:18;;;;;;;10.47;9.57;;;9.80;99.90;;;;;;5071844;28;20528;-65
2021/10/05 04:46:44;;;;;;;9.87;9.17;;;9.80;99.90;;;;;;5072071;28;20635;-64
2021/10/05 04:49:10;;;;;;;10.17;9.40;;;9.90;99.90;;;;;;5071909;28;20201;-63
2021/10/05 04:51:35;;;;;;;10.53;9.73;;;9.80;99.90;;;;;;5070543;28;20206;-63
2021/10/05 04:54:01;;;;;;;10.20;9.50;;;9.80;99.90;;;;;;5072029;28;20216;-63
2021/10/05 04:56:27;;;;;;;10.80;9.90;;;9.80;99.90;;;;;;5065530;28;20182;-64
2021/10/05 04:58:52;;;;;;;10.37;9.57;;;9.80;99.90;;;;;;5072231;28;20581;-63
2021/10/05 05:01:18;;;;;;;10.60;9.90;;;9.80;99.90;;;;;;5071158;28;20174;-63
2021/10/05 05:03:43;;;;;;;12.53;11.63;;;9.90;99.90;;;;;;5070366;28;20273;-64
2021/10/05 05:06:09;;;;;;;10.97;10.07;;;9.90;99.90;;;;;;5071785;28;20182;-63
2021/10/05 05:08:35;;;;;;;10.80;10.10;;;9.90;99.90;;;;;;5071920;28;20307;-63
2021/10/05 05:11:01;;;;;;;10.90;10.10;;;9.90;99.90;;;;;;5071456;28;20243;-64
2021/10/05 05:13:27;;;;;;;11.70;10.80;;;9.90;99.90;;;;;;5071537;28;20190;-64
2021/10/05 05:15:53;;;;;;;10.87;9.97;;;9.90;99.90;;;;;;5071433;28;20554;-63
2021/10/05 05:18:19;;;;;;;11.23;10.17;;;9.90;99.90;;;;;;5071732;28;20170;-63
2021/10/05 05:20:45;;;;;;;11.40;10.60;;;9.90;99.90;;;;;;5071492;28;20177;-63
2021/10/05 05:23:11;;;;;;;11.30;10.40;;;9.90;99.90;;;;;;5071740;28;20671;-63
2021/10/05 05:25:36;;;;;;;11.27;10.27;;;9.90;99.90;;;;;;5071603;28;20235;-63
2021/10/05 05:28:02;;;;;;;11.50;10.60;;;9.90;99.90;;;;;;5071587;28;20181;-63
2021/10/05 05:30:28;;;;;;;11.50;10.60;;;9.90;99.90;;;;;;5070982;28;20182;-63
2021/10/05 05:32:54;;;;;;;11.43;10.43;;;9.90;99.90;;;;;;5070903;28;20301;-63
2021/10/05 05:35:19;;;;;;;11.40;10.43;;;10.00;99.90;;;;;;5071558;28;20170;-63
2021/10/05 05:37:45;;;;;;;11.70;10.90;;;10.00;99.90;;;;;;5071539;28;20198;-63
2021/10/05 05:40:12;;;;;;;12.13;11.13;;;10.00;99.90;;;;;;5074747;28;20182;-63
2021/10/05 05:42:38;;;;;;;10.93;10.13;;;10.10;99.90;;;;;;5075264;28;20266;-64
2021/10/05 05:45:04;;;;;;;11.83;10.93;;;10.00;99.90;;;;;;5075216;28;20186;-63
2021/10/05 05:47:29;;;;;;;11.83;10.80;;;10.00;99.90;;;;;;5075486;28;20374;-63
2021/10/05 05:49:55;;;;;;;12.00;11.10;;;10.00;99.90;;;;;;5074841;28;20174;-64
2021/10/05 05:52:21;;;;;;;12.20;11.20;;;10.00;99.90;;;;;;5075006;28;20252;-63
2021/10/05 05:54:47;;;;;;;12.57;11.57;;;10.00;99.90;;;;;;5075127;28;20264;-63
2021/10/05 05:57:12;;;;;;;11.73;10.73;;;10.00;99.90;;;;;;5074606;28;20189;-63
2021/10/05 05:59:38;;;;;;;11.43;10.40;;;10.00;99.90;;;;;;5074839;28;20628;-63
2021/10/05 06:02:03;;;;;;;11.30;10.30;;;10.00;99.90;;;;;;5074655;28;20205;-63
2021/10/05 06:04:29;;;;;;;11.70;10.53;;;10.00;99.90;;;;;;5070880;28;20182;-63
2021/10/05 06:06:55;;;;;;;11.60;10.70;;;10.10;99.90;;;;;;5073698;28;20206;-63
2021/10/05 06:09:20;;;;;;;12.27;11.07;;;10.10;99.90;;;;;;5075607;28;20255;-64
2021/10/05 06:11:48;;;;;;;12.80;11.63;;;10.20;99.90;;;;;;5075034;28;20630;-64
2021/10/05 06:14:14;;;;;;;11.57;10.73;;;10.20;99.90;;;;;;5075345;28;20202;-64
2021/10/05 06:16:39;;;;;;;11.90;10.90;;;10.30;99.90;;;;;;5075152;28;20240;-64
2021/10/05 06:19:05;;;;;;;11.67;10.67;;;10.30;99.90;;;;;;5074614;28;20674;-64
2021/10/05 06:21:31;;;;;;;10.97;10.07;;;10.40;99.90;;;;;;5074100;28;20183;-64
2021/10/05 06:23:56;;;;;;;12.23;11.33;;;10.40;99.90;;;;;;5074204;28;20178;-64
2021/10/05 06:26:22;;;;;;;12.80;11.73;;;10.40;99.90;;;;;;5074119;28;20190;-64
2021/10/05 06:28:48;;;;;;;12.20;11.37;;;10.50;99.90;;;;;;5074402;28;20178;-64
2021/10/05 06:31:14;;;;;;;18.37;11.63;;;10.50;99.90;;;;;;5070797;28;20190;-65
2021/10/05 06:33:39;;;;;;;11.67;10.77;;;10.50;99.90;;;;;;5074125;28;20197;-64
2021/10/05 06:36:07;;;;;;;11.40;10.60;;;10.60;99.90;;;;;;5073548;28;20174;-64
2021/10/05 06:38:33;;;;;;;14.50;10.53;;;10.70;99.90;;;;;;5074152;28;20797;-64
2021/10/05 06:40:59;;;;;;;11.33;10.20;;;10.70;99.90;;;;;;5073481;28;20179;-64
2021/10/05 06:43:24;;;;;;;11.13;10.23;;;10.80;99.90;;;;;;5073841;28;20194;-64
2021/10/05 06:45:50;;;;;;;10.73;9.90;;;10.80;99.90;;;;;;5073623;28;20738;-63
2021/10/05 06:48:16;;;;;;;11.03;10.00;;;10.90;99.90;;;;;;5073740;28;20189;-64
2021/10/05 06:50:42;;;;;;;10.67;9.67;;;11.00;99.90;;;;;;5070993;28;20228;-64
2021/10/05 06:53:08;;;;;;;10.57;9.77;;;11.00;99.90;;;;;;5073550;28;20198;-64
2021/10/05 06:55:34;;;;;;;10.87;9.80;;;11.10;99.90;;;;;;5073436;28;20190;-64
2021/10/05 06:58:00;;;;;;;10.10;9.37;;;11.20;99.90;;;;;;5073227;28;20166;-64
2021/10/05 07:00:26;;;;;;;10.77;9.87;;;11.30;99.90;;;;;;5073017;28;20258;-64
2021/10/05 07:02:52;;;;;;;10.20;9.40;;;11.50;99.90;;;;;;5073432;28;20198;-64
2021/10/05 07:05:20;;;;;;;10.67;9.83;;;11.60;99.90;;;;;;5073287;28;20185;-64
2021/10/05 07:07:49;;;;;;;9.83;9.13;;;11.70;99.90;;;;;;5072689;28;20174;-64
2021/10/05 07:10:17;;;;;;;11.17;10.00;;;11.80;99.90;;;;;;5072894;28;20170;-64
2021/10/05 07:12:43;;;;;;;10.60;9.90;;;11.90;99.90;;;;;;5073232;28;20229;-64
2021/10/05 07:15:09;;;;;;;11.13;10.13;;;12.00;99.90;;;;;;5073029;28;20201;-64
2021/10/05 07:17:35;;;;;;;9.73;9.07;;;12.10;99.90;;;;;;5073388;28;20174;-64
2021/10/05 07:20:02;;;;;;;8.80;8.30;;;12.20;99.90;;;;;;5072603;28;20181;-64
2021/10/05 07:22:28;;;;;;;8.50;7.90;;;12.30;99.90;;;;;;5073063;28;20194;-64
2021/10/05 07:24:53;;;;;;;9.10;8.33;;;12.50;99.90;;;;;;5072662;28;20208;-64
2021/10/05 07:27:19;;;;;;;8.73;8.13;;;12.60;99.90;;;;;;5072945;28;20222;-64
2021/10/05 07:29:45;;;;;;;9.23;8.43;;;12.80;99.90;;;;;;5072508;28;20261;-64
2021/10/05 07:32:11;;;;;;;7.77;7.27;;;13.00;99.90;;;;;;5072545;28;20569;-64
2021/10/05 07:34:37;;;;;;;8.40;7.80;;;13.30;99.90;;;;;;5072857;28;20627;-64
2021/10/05 07:37:03;;;;;;;8.20;7.50;;;13.50;99.90;;;;;;5071323;28;20197;-63
2021/10/05 07:39:28;;;;;;;9.17;8.47;;;13.60;99.90;;;;;;5072540;28;20236;-64
2021/10/05 07:41:54;;;;;;;8.90;8.20;;;13.50;99.90;;;;;;5072387;28;20201;-64
2021/10/05 07:44:20;;;;;;;7.67;7.17;;;13.70;99.90;;;;;;5072719;28;20166;-64
2021/10/05 07:46:46;;;;;;;8.27;7.63;;;14.00;99.90;;;;;;5072530;28;20184;-64
2021/10/05 07:49:15;;;;;;;7.63;7.13;;;14.10;99.90;;;;;;5072389;28;20170;-64
2021/10/05 07:51:41;;;;;;;6.93;6.53;;;14.50;99.90;;;;;;5072152;28;20197;-64
2021/10/05 07:54:06;;;;;;;7.60;7.10;;;14.80;99.90;;;;;;5072201;28;20244;-64
2021/10/05 07:56:32;;;;;;;7.87;7.40;;;14.70;99.90;;;;;;5072346;28;20253;-64
2021/10/05 07:58:58;;;;;;;7.00;6.60;;;14.70;99.90;;;;;;5072078;28;20199;-64
2021/10/05 08:01:24;;;;;;;7.13;6.47;;;14.50;99.90;;;;;;5071585;28;20185;-64
2021/10/05 08:03:50;;;;;;;7.20;6.77;;;14.70;99.90;;;;;;5072405;28;20232;-64
2021/10/05 08:06:16;;;;;;;7.53;6.80;;;14.80;99.90;;;;;;5071205;28;20178;-64
2021/10/05 08:08:44;;;;;;;7.40;6.90;;;15.00;99.90;;;;;;5071905;28;20174;-63
2021/10/05 08:11:10;;;;;;;6.87;6.47;;;15.40;99.90;;;;;;5071663;28;20685;-64
2021/10/05 08:13:36;;;;;;;6.57;6.17;;;15.70;99.90;;;;;;5072253;28;20651;-63
2021/10/05 08:16:02;;;;;;;7.07;6.57;;;15.90;99.90;;;;;;5072007;28;20265;-64
2021/10/05 08:18:27;;;;;;;6.70;6.27;;;16.00;99.90;;;;;;5071968;28;20543;-64
2021/10/05 08:20:53;;;;;;;6.90;6.23;;;16.40;99.90;;;;;;5071913;28;20182;-64
2021/10/05 08:23:19;;;;;;;6.73;6.20;;;16.60;99.90;;;;;;5072142;28;20233;-64
2021/10/05 08:25:45;;;;;;;6.53;6.03;;;16.60;99.90;;;;;;5071972;28;20189;-64
2021/10/05 08:28:12;;;;;;;7.60;6.83;;;16.60;99.90;;;;;;5072076;28;20178;-64
2021/10/05 08:30:38;;;;;;;6.20;5.70;;;16.70;99.90;;;;;;5071788;28;20181;-65
2021/10/05 08:33:04;;;;;;;7.00;6.50;;;17.00;99.90;;;;;;5071881;28;20683;-64
2021/10/05 08:35:30;;;;;;;5.90;5.60;;;17.20;99.90;;;;;;5071487;28;20174;-64
2021/10/05 08:37:59;;;;;;;6.27;5.87;;;17.50;99.90;;;;;;5072027;28;20571;-65
2021/10/05 08:40:25;;;;;;;6.00;5.60;;;17.70;99.90;;;;;;5071430;28;20174;-64
2021/10/05 08:42:51;;;;;;;5.83;5.50;;;17.70;99.90;;;;;;5071664;28;20611;-64
2021/10/05 08:45:17;;;;;;;5.90;5.50;;;17.90;99.90;;;;;;5071397;28;20185;-64
2021/10/05 08:47:43;;;;;;;5.70;5.30;;;18.10;99.90;;;;;;5071555;28;20178;-64
2021/10/05 08:50:13;;;;;;;6.07;5.67;;;18.20;99.90;;;;;;5070997;28;20527;-64
2021/10/05 08:52:43;;;;;;;6.03;5.53;;;17.90;99.90;;;;;;5071576;28;20277;-64
2021/10/05 08:55:09;;;;;;;6.10;5.70;;;17.70;99.90;;;;;;5071263;28;20196;-64
2021/10/05 08:57:34;;;;;;;6.07;5.67;;;17.30;99.90;;;;;;5071491;28;20174;-64
2021/10/05 09:00:04;;;;;;;6.63;5.97;;;16.90;99.90;;;;;;5071068;28;20644;-64
2021/10/05 09:02:45;;;;;;;6.37;5.90;;;16.80;99.90;;;;;;5071555;28;20209;-64
2021/10/05 09:05:13;;;;;;;6.40;5.80;;;16.60;99.90;;;;;;5071274;28;20174;-63
2021/10/05 09:07:43;;;;;;;6.30;5.90;;;16.70;99.90;;;;;;5070058;28;20788;-63
2021/10/05 09:10:10;;;;;;;6.37;5.70;;;17.20;99.90;;;;;;5070728;28;20186;-63
2021/10/05 09:12:36;;;;;;;5.50;5.20;;;17.70;99.90;;;;;;5071359;28;20206;-63
2021/10/05 09:15:05;;;;;;;5.50;5.10;;;18.30;99.90;;;;;;5075072;28;20181;-63
2021/10/05 09:17:31;;;;;;;5.20;4.80;;;18.80;99.90;;;;;;5071262;28;20174;-64
2021/10/05 09:19:58;;;;;;;5.67;5.37;;;19.00;99.90;;;;;;5074995;28;20181;-63
2021/10/05 09:22:29;;;;;;;5.00;4.70;;;19.00;99.90;;;;;;5075354;28;20201;-62
2021/10/05 09:24:57;;;;;;;5.40;5.00;;;19.10;99.90;;;;;;5064755;28;20175;-63
2021/10/05 09:27:24;;;;;;;5.37;4.83;;;19.30;99.90;;;;;;5055365;28;20183;-63
2021/10/05 09:29:52;;;;;;;5.97;5.67;;;19.20;99.90;;;;;;5054962;28;20167;-63
2021/10/05 09:32:20;;;;;;;5.27;4.97;;;19.30;99.90;;;;;;5054771;28;20591;-63
2021/10/05 09:34:54;;;;;;;5.50;5.10;;;19.60;99.90;;;;;;5074445;28;20179;-64
2021/10/05 09:37:32;;;;;;;5.57;5.07;;;19.60;99.90;;;;;;5074997;28;20174;-64
2021/10/05 09:40:04;;;;;;;5.03;4.70;;;19.60;99.90;;;;;;5074500;28;20174;-61
2021/10/05 09:42:47;;;;;;;5.53;5.07;;;19.50;99.90;;;;;;5074845;28;20633;-63
2021/10/05 09:45:21;;;;;;;5.10;4.77;;;19.10;99.90;;;;;;5054806;28;20182;-63
2021/10/05 09:47:47;;;;;;;6.93;4.90;;;18.80;99.90;;;;;;5061528;28;20181;-63
2021/10/05 09:50:32;;;;;;;7.07;5.20;;;18.50;99.90;;;;;;5074207;28;20178;-63
2021/10/05 09:53:09;;;;;;;5.13;4.73;;;18.70;99.90;;;;;;5074555;28;20202;-63
2021/10/05 09:55:42;;;;;;;5.47;4.97;;;18.80;99.90;;;;;;5082856;22;20644;-62
2021/10/05 09:58:09;;;;;;;5.03;4.70;;;19.10;99.90;;;;;;5065287;28;20185;-63
2021/10/05 10:00:43;;;;;;;5.00;4.70;;;19.20;99.90;;;;;;5054550;28;20175;-63
2021/10/05 10:03:09;;;;;;;5.53;5.13;;;19.40;99.90;;;;;;5055563;28;20201;-63
2021/10/05 10:05:38;;;;;;;5.13;4.73;;;19.80;99.90;;;;;;5053716;28;20273;-63
2021/10/05 10:08:05;;;;;;;5.00;4.70;;;19.80;99.90;;;;;;5062355;28;20182;-64
2021/10/05 10:10:33;;;;;;;5.43;4.93;;;19.80;99.90;;;;;;5074389;28;20182;-63
2021/10/05 10:13:05;;;;;;;4.93;4.63;;;20.00;99.90;;;;;;5067597;28;20210;-63
2021/10/05 10:15:33;;;;;;;5.17;4.63;;;20.20;99.90;;;;;;5054215;28;20190;-63
2021/10/05 10:18:14;;;;;;;6.10;5.70;;;20.30;99.90;;;;;;5060751;28;20578;-63
2021/10/05 10:20:42;;;;;;;5.60;5.10;;;20.20;99.90;;;;;;5074179;28;20162;-63
2021/10/05 10:23:22;;;;;;;8.00;5.07;;;20.10;99.90;;;;;;5067144;28;20182;-63
2021/10/05 10:26:00;;;;;;;6.33;5.80;;;20.00;99.90;;;;;;5053324;28;20186;-62
2021/10/05 10:28:30;;;;;;;5.63;5.23;;;20.10;99.90;;;;;;5062915;28;20174;-63
2021/10/05 10:30:59;;;;;;;4.90;4.50;;;20.30;99.90;;;;;;5073903;28;20188;-65
2021/10/05 10:33:27;;;;;;;8.83;6.07;;;20.40;99.90;;;;;;5069861;28;20244;-63
2021/10/05 10:35:55;;;;;;;5.83;5.23;;;20.50;99.90;;;;;;5074305;28;20190;-63
2021/10/05 10:38:28;;;;;;;5.30;4.70;;;20.50;99.90;;;;;;5066545;28;20536;-62
2021/10/05 10:40:55;;;;;;;5.03;4.60;;;20.40;99.90;;;;;;5053991;28;20174;-62
2021/10/05 10:43:23;;;;;;;8.10;6.30;;;20.50;99.90;;;;;;5060463;28;20182;-64
2021/10/05 10:45:58;;;;;;;7.70;5.70;;;20.50;99.90;;;;;;5072127;28;20190;-65
2021/10/05 10:48:33;;;;;;;5.10;4.80;;;20.30;99.90;;;;;;5053538;28;20182;-62
2021/10/05 10:51:14;;;;;;;7.73;6.97;;;20.40;99.90;;;;;;5055621;28;20178;-63
2021/10/05 10:53:43;;;;;;;5.80;5.30;;;20.30;99.90;;;;;;5073693;28;20182;-62
2021/10/05 10:56:08;;;;;;;7.13;5.03;;;20.60;99.90;;;;;;5070557;28;20187;-65
2021/10/05 10:58:42;;;;;;;5.70;5.20;;;20.70;99.90;;;;;;5053815;28;20247;-62
2021/10/05 11:01:09;;;;;;;6.63;5.97;;;20.60;99.90;;;;;;5055349;28;20678;-62
2021/10/05 11:03:35;;;;;;;6.07;5.53;;;20.80;99.90;;;;;;5073610;28;20518;-62
2021/10/05 11:06:01;;;;;;;6.73;4.93;;;20.90;99.90;;;;;;5071801;28;20205;-62
2021/10/05 11:08:27;;;;;;;5.30;4.80;;;20.70;99.90;;;;;;5053476;28;20179;-63
2021/10/05 11:11:01;;;;;;;4.93;4.60;;;20.50;99.90;;;;;;5053231;28;20174;-62
2021/10/05 11:13:28;;;;;;;7.83;5.30;;;20.60;99.90;;;;;;5053470;28;20256;-61
2021/10/05 11:15:54;;;;;;;8.67;5.40;;;20.80;99.90;;;;;;5069218;28;20233;-63
2021/10/05 11:18:24;;;;;;;4.83;4.50;;;20.90;99.90;;;;;;5073233;28;20202;-62
2021/10/05 11:20:52;;;;;;;6.10;5.63;;;21.00;99.90;;;;;;5058012;28;20175;-61
2021/10/05 11:23:24;;;;;;;7.37;4.90;;;21.00;99.90;;;;;;5053224;28;20210;-63
2021/10/05 11:25:55;;;;;;;4.70;4.40;;;21.10;99.90;;;;;;5066680;28;20202;-62
2021/10/05 11:28:23;;;;;;;5.53;4.40;;;21.40;99.90;;;;;;5063178;28;20236;-62
2021/10/05 11:31:01;;;;;;;4.33;4.03;;;21.40;99.90;;;;;;5052765;28;20189;-62
2021/10/05 11:33:40;;;;;;;4.70;4.40;;;21.60;99.90;;;;;;5062826;28;20214;-62
2021/10/05 11:36:25;;;;;;;4.97;4.63;;;21.50;99.90;;;;;;5072167;28;20639;-65
2021/10/05 11:38:52;;;;;;;7.23;5.30;;;21.60;99.90;;;;;;5063731;28;20691;-62
2021/10/05 11:41:19;;;;;;;5.43;4.90;;;21.30;99.90;;;;;;5069086;28;20177;-63
2021/10/05 11:43:51;;;;;;;8.23;4.40;;;21.50;99.90;;;;;;5072725;28;20257;-63
2021/10/05 11:46:22;;;;;;;5.23;4.80;;;21.70;99.90;;;;;;5061580;28;20713;-63
2021/10/05 11:48:50;;;;;;;5.28;4.40;;;22.10;99.90;;;;;;5052706;28;20178;-63
2021/10/05 11:51:18;;;;;;;7.30;4.77;;;22.00;99.90;;;;;;5062227;28;20647;-63
2021/10/05 11:53:45;;;;;;;5.57;4.63;;;21.50;99.90;;;;;;5072482;28;20193;-63
2021/10/05 11:56:13;;;;;;;5.07;4.63;;;20.70;99.90;;;;;;5063241;28;20193;-63
2021/10/05 11:58:41;;;;;;;5.03;4.63;;;20.40;99.90;;;;;;5052731;28;20175;-62
2021/10/05 12:01:33;;;;;;;4.83;4.30;;;20.10;99.90;;;;;;5060028;28;20185;-63
2021/10/05 12:04:09;;;;;;;5.27;4.77;;;19.70;99.90;;;;;;5069544;28;20198;-63
2021/10/05 12:06:38;;;;;;;9.97;4.80;;;19.50;99.90;;;;;;5061107;28;20177;-64
2021/10/05 12:09:06;;;;;;;4.63;4.33;;;19.60;99.90;;;;;;5052794;28;20648;-63
2021/10/05 12:11:46;;;;;;;5.23;4.50;;;19.80;99.90;;;;;;5062981;28;20197;-63
2021/10/05 12:14:14;;;;;;;5.87;5.47;;;20.20;99.90;;;;;;5071970;28;20190;-64
2021/10/05 12:16:41;;;;;;;5.50;5.20;;;20.40;99.90;;;;;;5061312;28;20179;-64
2021/10/05 12:19:07;;;;;;;4.93;4.43;;;20.30;99.90;;;;;;5051913;28;20163;-63
2021/10/05 12:21:34;;;;;;;4.47;4.17;;;20.20;99.90;;;;;;5061081;28;20182;-63
2021/10/05 12:24:02;;;;;;;5.63;5.20;;;20.30;99.90;;;;;;5071969;28;20284;-64
2021/10/05 12:26:28;;;;;;;5.80;4.40;;;20.30;99.90;;;;;;5063848;28;20660;-63
2021/10/05 12:29:04;;;;;;;5.07;4.67;;;20.30;99.90;;;;;;5051989;28;20224;-63
2021/10/05 12:31:32;;;;;;;4.43;4.13;;;20.20;99.90;;;;;;5055965;28;20268;-62
2021/10/05 12:34:08;;;;;;;6.53;4.90;;;20.00;99.90;;;;;;5051937;28;20167;-63
2021/10/05 12:36:37;;;;;;;4.67;4.37;;;19.90;99.90;;;;;;5059273;28;20746;-63
2021/10/05 12:39:12;;;;;;;4.90;4.60;;;20.00;99.90;;;;;;5071594;28;20170;-63
2021/10/05 12:41:39;;;;;;;4.63;4.17;;;19.90;99.90;;;;;;5063882;28;20273;-64
2021/10/05 12:44:19;;;;;;;7.30;4.47;;;19.80;99.90;;;;;;5051693;28;20190;-62